sensor_id;sensor_type;location;lat;lon;timestamp;temperature;humidity
4530;DHT22;2277;51.626;7.516;2023-08-30T00:02:14;19.20;99.90
4530;DHT22;2277;51.626;7.516;2023-08-30T00:04:41;19.20;99.90
4530;DHT22;2277;51.626;7.516;2023-08-30T00:07:07;19.20;99.90
4530;DHT22;2277;51.626;7.516;2023-08-30T00:09:32;19.20;99.90
4530;DHT22;2277;51.626;7.516;2023-08-30T00:11:58;19.20;99.90
4530;DHT22;2277;51.626;7.516;2023-08-30T00:14:24;19.20;99.90
4530;DHT22;2277;51.626;7.516;2023-08-30T00:16:49;19.20;99.90
4530;DHT22;2277;51.626;7.516;2023-08-30T00:19:15;19.20;99.90
4530;DHT22;2277;51.626;7.516;2023-08-30T00:21:41;19.20;99.90
4530;DHT22;2277;51.626;7.516;2023-08-30T00:24:08;19.10;99.90
4530;DHT22;2277;51.626;7.516;2023-08-30T00:26:33;19.10;99.90
4530;DHT22;2277;51.626;7.516;2023-08-30T00:28:59;19.10;99.90
4530;DHT22;2277;51.626;7.516;2023-08-30T00:31:24;19.00;99.90
4530;DHT22;2277;51.626;7.516;2023-08-30T00:33:50;19.00;99.90
4530;DHT22;2277;51.626;7.516;2023-08-30T00:36:15;19.00;99.90
4530;DHT22;2277;51.626;7.516;2023-08-30T00:38:43;18.90;99.90
4530;DHT22;2277;51.626;7.516;2023-08-30T00:41:09;18.90;99.90
4530;DHT22;2277;51.626;7.516;2023-08-30T00:43:35;18.90;99.90
4530;DHT22;2277;51.626;7.516;2023-08-30T00:46:00;18.90;99.90
4530;DHT22;2277;51.626;7.516;2023-08-30T00:48:26;18.80;99.90
4530;DHT22;2277;51.626;7.516;2023-08-30T00:50:52;18.80;99.90
4530;DHT22;2277;51.626;7.516;2023-08-30T00:53:18;18.80;99.90
4530;DHT22;2277;51.626;7.516;2023-08-30T00:55:44;18.70;99.90
4530;DHT22;2277;51.626;7.516;2023-08-30T00:58:10;18.70;99.90
4530;DHT22;2277;51.626;7.516;2023-08-30T01:00:37;18.70;99.90
4530;DHT22;2277;51.626;7.516;2023-08-30T01:03:03;18.60;99.90
4530;DHT22;2277;51.626;7.516;2023-08-30T01:05:30;18.60;99.90
4530;DHT22;2277;51.626;7.516;2023-08-30T01:07:56;18.60;99.90
4530;DHT22;2277;51.626;7.516;2023-08-30T01:10:28;18.60;99.90
4530;DHT22;2277;51.626;7.516;2023-08-30T01:13:08;18.50;99.90
4530;DHT22;2277;51.626;7.516;2023-08-30T01:15:34;18.50;99.90
4530;DHT22;2277;51.626;7.516;2023-08-30T01:18:02;18.40;99.90
4530;DHT22;2277;51.626;7.516;2023-08-30T01:20:29;18.40;99.90
4530;DHT22;2277;51.626;7.516;2023-08-30T01:23:06;18.40;99.90
4530;DHT22;2277;51.626;7.516;2023-08-30T01:26:08;18.30;99.90
4530;DHT22;2277;51.626;7.516;2023-08-30T01:28:35;18.30;99.90
4530;DHT22;2277;51.626;7.516;2023-08-30T01:31:02;18.20;99.90
4530;DHT22;2277;51.626;7.516;2023-08-30T01:33:29;18.20;99.90
4530;DHT22;2277;51.626;7.516;2023-08-30T01:35:57;18.10;99.90
4530;DHT22;2277;51.626;7.516;2023-08-30T01:38:23;18.00;99.90
4530;DHT22;2277;51.626;7.516;2023-08-30T01:40:51;18.00;99.90
4530;DHT22;2277;51.626;7.516;2023-08-30T01:43:17;18.00;99.90
4530;DHT22;2277;51.626;7.516;2023-08-30T01:45:43;18.00;99.90
4530;DHT22;2277;51.626;7.516;2023-08-30T01:48:12;17.90;99.90
4530;DHT22;2277;51.626;7.516;2023-08-30T01:50:39;17.90;99.90
4530;DHT22;2277;51.626;7.516;2023-08-30T01:53:06;17.80;99.90
4530;DHT22;2277;51.626;7.516;2023-08-30T01:55:34;17.80;99.90
4530;DHT22;2277;51.626;7.516;2023-08-30T01:58:00;17.70;99.90
4530;DHT22;2277;51.626;7.516;2023-08-30T02:00:26;17.70;99.90
4530;DHT22;2277;51.626;7.516;2023-08-30T02:02:52;17.60;99.90
4530;DHT22;2277;51.626;7.516;2023-08-30T02:05:17;17.70;99.90
4530;DHT22;2277;51.626;7.516;2023-08-30T02:07:49;17.60;99.90
4530;DHT22;2277;51.626;7.516;2023-08-30T02:10:21;17.50;99.90
4530;DHT22;2277;51.626;7.516;2023-08-30T02:12:49;17.40;99.90
4530;DHT22;2277;51.626;7.516;2023-08-30T02:15:17;17.40;99.90
4530;DHT22;2277;51.626;7.516;2023-08-30T02:17:43;17.40;99.90
4530;DHT22;2277;51.626;7.516;2023-08-30T02:20:09;17.40;99.90
4530;DHT22;2277;51.626;7.516;2023-08-30T02:22:35;17.40;99.90
4530;DHT22;2277;51.626;7.516;2023-08-30T02:25:01;17.30;99.90
4530;DHT22;2277;51.626;7.516;2023-08-30T02:27:33;17.30;99.90
4530;DHT22;2277;51.626;7.516;2023-08-30T02:30:00;17.30;99.90
4530;DHT22;2277;51.626;7.516;2023-08-30T02:32:25;17.30;99.90
4530;DHT22;2277;51.626;7.516;2023-08-30T02:34:52;17.30;99.90
4530;DHT22;2277;51.626;7.516;2023-08-30T02:37:18;17.30;99.90
4530;DHT22;2277;51.626;7.516;2023-08-30T02:39:44;17.30;99.90
4530;DHT22;2277;51.626;7.516;2023-08-30T02:42:09;17.30;99.90
4530;DHT22;2277;51.626;7.516;2023-08-30T02:44:35;17.30;99.90
4530;DHT22;2277;51.626;7.516;2023-08-30T02:47:01;17.20;99.90
4530;DHT22;2277;51.626;7.516;2023-08-30T02:49:26;17.20;99.90
4530;DHT22;2277;51.626;7.516;2023-08-30T02:51:52;17.20;99.90
4530;DHT22;2277;51.626;7.516;2023-08-30T02:54:18;17.20;99.90
4530;DHT22;2277;51.626;7.516;2023-08-30T02:56:44;17.20;99.90
4530;DHT22;2277;51.626;7.516;2023-08-30T02:59:10;17.20;99.90
4530;DHT22;2277;51.626;7.516;2023-08-30T03:01:36;17.20;99.90
4530;DHT22;2277;51.626;7.516;2023-08-30T03:04:01;17.20;99.90
4530;DHT22;2277;51.626;7.516;2023-08-30T03:06:27;17.20;99.90
4530;DHT22;2277;51.626;7.516;2023-08-30T03:08:55;17.10;99.90
4530;DHT22;2277;51.626;7.516;2023-08-30T03:11:21;17.10;99.90
4530;DHT22;2277;51.626;7.516;2023-08-30T03:13:46;17.10;99.90
4530;DHT22;2277;51.626;7.516;2023-08-30T03:16:13;17.10;99.90
4530;DHT22;2277;51.626;7.516;2023-08-30T03:18:40;17.00;99.90
4530;DHT22;2277;51.626;7.516;2023-08-30T03:21:06;17.00;99.90
4530;DHT22;2277;51.626;7.516;2023-08-30T03:23:32;17.00;99.90
4530;DHT22;2277;51.626;7.516;2023-08-30T03:25:59;17.00;99.90
4530;DHT22;2277;51.626;7.516;2023-08-30T03:28:25;17.00;99.90
4530;DHT22;2277;51.626;7.516;2023-08-30T03:30:51;17.00;99.90
4530;DHT22;2277;51.626;7.516;2023-08-30T03:33:16;17.00;99.90
4530;DHT22;2277;51.626;7.516;2023-08-30T03:35:42;16.90;99.90
4530;DHT22;2277;51.626;7.516;2023-08-30T03:38:07;16.90;99.90
4530;DHT22;2277;51.626;7.516;2023-08-30T03:40:33;16.90;99.90
4530;DHT22;2277;51.626;7.516;2023-08-30T03:42:59;16.80;99.90
4530;DHT22;2277;51.626;7.516;2023-08-30T03:45:24;16.80;99.90
4530;DHT22;2277;51.626;7.516;2023-08-30T03:47:50;16.80;99.90
4530;DHT22;2277;51.626;7.516;2023-08-30T03:50:15;16.70;99.90
4530;DHT22;2277;51.626;7.516;2023-08-30T03:52:41;16.70;99.90
4530;DHT22;2277;51.626;7.516;2023-08-30T03:55:07;16.70;99.90
4530;DHT22;2277;51.626;7.516;2023-08-30T03:57:32;16.70;99.90
4530;DHT22;2277;51.626;7.516;2023-08-30T03:59:58;16.70;99.90
4530;DHT22;2277;51.626;7.516;2023-08-30T04:02:23;16.60;99.90
4530;DHT22;2277;51.626;7.516;2023-08-30T04:04:49;16.60;99.90
4530;DHT22;2277;51.626;7.516;2023-08-30T04:07:15;16.60;99.90
4530;DHT22;2277;51.626;7.516;2023-08-30T04:09:41;16.50;99.90
4530;DHT22;2277;51.626;7.516;2023-08-30T04:12:06;16.50;99.90
4530;DHT22;2277;51.626;7.516;2023-08-30T04:14:32;16.50;99.90
4530;DHT22;2277;51.626;7.516;2023-08-30T04:16:58;16.50;99.90
4530;DHT22;2277;51.626;7.516;2023-08-30T04:19:23;16.40;99.90
4530;DHT22;2277;51.626;7.516;2023-08-30T04:21:49;16.40;99.90
4530;DHT22;2277;51.626;7.516;2023-08-30T04:24:15;16.40;99.90
4530;DHT22;2277;51.626;7.516;2023-08-30T04:26:40;16.40;99.90
4530;DHT22;2277;51.626;7.516;2023-08-30T04:29:06;16.30;99.90
4530;DHT22;2277;51.626;7.516;2023-08-30T04:31:32;16.30;99.90
4530;DHT22;2277;51.626;7.516;2023-08-30T04:33:57;16.30;99.90
4530;DHT22;2277;51.626;7.516;2023-08-30T04:36:23;16.20;99.90
4530;DHT22;2277;51.626;7.516;2023-08-30T04:38:49;16.20;99.90
4530;DHT22;2277;51.626;7.516;2023-08-30T04:41:14;16.20;99.90
4530;DHT22;2277;51.626;7.516;2023-08-30T04:43:40;16.20;99.90
4530;DHT22;2277;51.626;7.516;2023-08-30T04:46:05;16.10;99.90
4530;DHT22;2277;51.626;7.516;2023-08-30T04:48:31;15.90;99.90
4530;DHT22;2277;51.626;7.516;2023-08-30T04:51:01;15.80;99.90
4530;DHT22;2277;51.626;7.516;2023-08-30T04:53:28;15.80;99.90
4530;DHT22;2277;51.626;7.516;2023-08-30T04:55:54;15.80;99.90
4530;DHT22;2277;51.626;7.516;2023-08-30T04:58:20;15.80;99.90
4530;DHT22;2277;51.626;7.516;2023-08-30T05:00:46;15.80;99.90
4530;DHT22;2277;51.626;7.516;2023-08-30T05:03:11;15.90;99.90
4530;DHT22;2277;51.626;7.516;2023-08-30T05:05:37;15.90;99.90
4530;DHT22;2277;51.626;7.516;2023-08-30T05:08:03;15.90;99.90
4530;DHT22;2277;51.626;7.516;2023-08-30T05:10:29;15.90;99.90
4530;DHT22;2277;51.626;7.516;2023-08-30T05:12:54;16.00;99.90
4530;DHT22;2277;51.626;7.516;2023-08-30T05:15:20;16.00;99.90
4530;DHT22;2277;51.626;7.516;2023-08-30T05:17:46;16.00;99.90
4530;DHT22;2277;51.626;7.516;2023-08-30T05:20:12;16.00;99.90
4530;DHT22;2277;51.626;7.516;2023-08-30T05:22:38;16.00;99.90
4530;DHT22;2277;51.626;7.516;2023-08-30T05:25:04;16.00;99.90
4530;DHT22;2277;51.626;7.516;2023-08-30T05:27:30;16.00;99.90
4530;DHT22;2277;51.626;7.516;2023-08-30T05:29:55;15.90;99.90
4530;DHT22;2277;51.626;7.516;2023-08-30T05:32:23;16.00;99.90
4530;DHT22;2277;51.626;7.516;2023-08-30T05:34:49;15.90;99.90
4530;DHT22;2277;51.626;7.516;2023-08-30T05:37:15;16.00;99.90
4530;DHT22;2277;51.626;7.516;2023-08-30T05:39:40;16.00;99.90
4530;DHT22;2277;51.626;7.516;2023-08-30T05:42:06;15.90;99.90
4530;DHT22;2277;51.626;7.516;2023-08-30T05:44:31;16.00;99.90
4530;DHT22;2277;51.626;7.516;2023-08-30T05:46:57;16.00;99.90
4530;DHT22;2277;51.626;7.516;2023-08-30T05:49:22;15.90;99.90
4530;DHT22;2277;51.626;7.516;2023-08-30T05:51:48;15.90;99.90
4530;DHT22;2277;51.626;7.516;2023-08-30T05:54:14;16.00;99.90
4530;DHT22;2277;51.626;7.516;2023-08-30T05:56:39;16.00;99.90
4530;DHT22;2277;51.626;7.516;2023-08-30T05:59:05;15.80;99.90
4530;DHT22;2277;51.626;7.516;2023-08-30T06:01:31;15.80;99.90
4530;DHT22;2277;51.626;7.516;2023-08-30T06:03:56;15.80;99.90
4530;DHT22;2277;51.626;7.516;2023-08-30T06:06:22;15.70;99.90
4530;DHT22;2277;51.626;7.516;2023-08-30T06:08:47;15.60;99.90
4530;DHT22;2277;51.626;7.516;2023-08-30T06:11:13;15.70;99.90
4530;DHT22;2277;51.626;7.516;2023-08-30T06:13:40;15.70;99.90
4530;DHT22;2277;51.626;7.516;2023-08-30T06:16:06;15.60;99.90
4530;DHT22;2277;51.626;7.516;2023-08-30T06:18:31;15.70;99.90
4530;DHT22;2277;51.626;7.516;2023-08-30T06:20:57;15.70;99.90
4530;DHT22;2277;51.626;7.516;2023-08-30T06:23:23;15.70;99.90
4530;DHT22;2277;51.626;7.516;2023-08-30T06:25:58;15.70;99.90
4530;DHT22;2277;51.626;7.516;2023-08-30T06:28:23;15.80;99.90
4530;DHT22;2277;51.626;7.516;2023-08-30T06:30:49;15.80;99.90
4530;DHT22;2277;51.626;7.516;2023-08-30T06:33:15;15.80;99.90
4530;DHT22;2277;51.626;7.516;2023-08-30T06:35:41;15.80;99.90
4530;DHT22;2277;51.626;7.516;2023-08-30T06:38:08;15.90;99.90
4530;DHT22;2277;51.626;7.516;2023-08-30T06:40:33;16.00;99.90
4530;DHT22;2277;51.626;7.516;2023-08-30T06:42:59;16.10;99.90
4530;DHT22;2277;51.626;7.516;2023-08-30T06:45:25;16.10;99.90
4530;DHT22;2277;51.626;7.516;2023-08-30T06:47:51;16.10;99.90
4530;DHT22;2277;51.626;7.516;2023-08-30T06:50:19;16.10;99.90
4530;DHT22;2277;51.626;7.516;2023-08-30T06:52:45;16.30;99.90
4530;DHT22;2277;51.626;7.516;2023-08-30T06:55:10;16.40;99.90
4530;DHT22;2277;51.626;7.516;2023-08-30T06:57:36;16.50;99.90
4530;DHT22;2277;51.626;7.516;2023-08-30T07:00:02;16.50;99.90
4530;DHT22;2277;51.626;7.516;2023-08-30T07:02:34;16.70;99.90
4530;DHT22;2277;51.626;7.516;2023-08-30T07:05:00;16.90;99.90
4530;DHT22;2277;51.626;7.516;2023-08-30T07:07:26;16.90;99.90
4530;DHT22;2277;51.626;7.516;2023-08-30T07:09:52;16.90;99.90
4530;DHT22;2277;51.626;7.516;2023-08-30T07:12:17;16.90;99.90
4530;DHT22;2277;51.626;7.516;2023-08-30T07:14:43;17.00;99.90
4530;DHT22;2277;51.626;7.516;2023-08-30T07:17:08;17.10;99.90
4530;DHT22;2277;51.626;7.516;2023-08-30T07:19:35;17.10;99.90
4530;DHT22;2277;51.626;7.516;2023-08-30T07:22:00;17.10;99.90
4530;DHT22;2277;51.626;7.516;2023-08-30T07:24:26;17.10;99.90
4530;DHT22;2277;51.626;7.516;2023-08-30T07:26:51;17.30;99.90
4530;DHT22;2277;51.626;7.516;2023-08-30T07:29:17;17.40;99.90
4530;DHT22;2277;51.626;7.516;2023-08-30T07:31:43;17.40;99.90
4530;DHT22;2277;51.626;7.516;2023-08-30T07:34:08;17.50;99.90
4530;DHT22;2277;51.626;7.516;2023-08-30T07:36:34;17.60;99.90
4530;DHT22;2277;51.626;7.516;2023-08-30T07:38:59;17.80;99.90
4530;DHT22;2277;51.626;7.516;2023-08-30T07:41:25;18.10;99.90
4530;DHT22;2277;51.626;7.516;2023-08-30T07:43:50;18.20;99.90
4530;DHT22;2277;51.626;7.516;2023-08-30T07:46:16;18.40;99.90
4530;DHT22;2277;51.626;7.516;2023-08-30T07:48:42;18.60;99.90
4530;DHT22;2277;51.626;7.516;2023-08-30T07:51:07;18.70;99.90
4530;DHT22;2277;51.626;7.516;2023-08-30T07:53:33;18.60;99.90
4530;DHT22;2277;51.626;7.516;2023-08-30T07:55:58;18.80;99.90
4530;DHT22;2277;51.626;7.516;2023-08-30T07:58:24;19.00;99.90
4530;DHT22;2277;51.626;7.516;2023-08-30T08:00:53;19.00;99.90
4530;DHT22;2277;51.626;7.516;2023-08-30T08:03:21;19.20;99.90
4530;DHT22;2277;51.626;7.516;2023-08-30T08:05:47;19.30;99.90
4530;DHT22;2277;51.626;7.516;2023-08-30T08:08:13;19.40;99.90
4530;DHT22;2277;51.626;7.516;2023-08-30T08:10:40;19.30;99.90
4530;DHT22;2277;51.626;7.516;2023-08-30T08:13:05;19.50;99.90
4530;DHT22;2277;51.626;7.516;2023-08-30T08:15:31;19.60;99.90
4530;DHT22;2277;51.626;7.516;2023-08-30T08:17:57;19.60;99.90
4530;DHT22;2277;51.626;7.516;2023-08-30T08:20:23;19.80;99.90
4530;DHT22;2277;51.626;7.516;2023-08-30T08:22:49;19.80;99.90
4530;DHT22;2277;51.626;7.516;2023-08-30T08:25:15;19.90;99.90
4530;DHT22;2277;51.626;7.516;2023-08-30T08:27:41;20.00;99.90
4530;DHT22;2277;51.626;7.516;2023-08-30T08:30:07;20.20;99.90
4530;DHT22;2277;51.626;7.516;2023-08-30T08:32:35;20.20;99.90
4530;DHT22;2277;51.626;7.516;2023-08-30T08:35:00;20.30;99.90
4530;DHT22;2277;51.626;7.516;2023-08-30T08:37:26;20.40;99.90
4530;DHT22;2277;51.626;7.516;2023-08-30T08:39:51;20.60;99.90
4530;DHT22;2277;51.626;7.516;2023-08-30T08:42:19;20.60;99.90
4530;DHT22;2277;51.626;7.516;2023-08-30T08:44:50;20.70;99.90
4530;DHT22;2277;51.626;7.516;2023-08-30T08:47:17;20.80;99.90
4530;DHT22;2277;51.626;7.516;2023-08-30T08:49:44;20.80;99.90
4530;DHT22;2277;51.626;7.516;2023-08-30T08:52:10;20.80;99.90
4530;DHT22;2277;51.626;7.516;2023-08-30T08:54:39;20.80;99.90
4530;DHT22;2277;51.626;7.516;2023-08-30T08:57:07;20.90;99.90
4530;DHT22;2277;51.626;7.516;2023-08-30T08:59:33;21.00;99.90
4530;DHT22;2277;51.626;7.516;2023-08-30T09:02:02;21.10;99.90
4530;DHT22;2277;51.626;7.516;2023-08-30T09:04:30;21.20;99.90
4530;DHT22;2277;51.626;7.516;2023-08-30T09:06:57;21.30;99.90
4530;DHT22;2277;51.626;7.516;2023-08-30T09:09:23;21.30;99.90
4530;DHT22;2277;51.626;7.516;2023-08-30T09:11:49;21.40;99.90
4530;DHT22;2277;51.626;7.516;2023-08-30T09:14:15;21.40;99.90
4530;DHT22;2277;51.626;7.516;2023-08-30T09:16:40;21.50;99.90
4530;DHT22;2277;51.626;7.516;2023-08-30T09:19:06;21.30;99.90
4530;DHT22;2277;51.626;7.516;2023-08-30T09:21:33;21.30;99.90
4530;DHT22;2277;51.626;7.516;2023-08-30T09:24:03;21.20;99.90
4530;DHT22;2277;51.626;7.516;2023-08-30T09:26:31;21.10;99.90
4530;DHT22;2277;51.626;7.516;2023-08-30T09:29:04;21.10;99.90
4530;DHT22;2277;51.626;7.516;2023-08-30T09:31:34;21.10;99.90
4530;DHT22;2277;51.626;7.516;2023-08-30T09:34:00;21.00;99.90
4530;DHT22;2277;51.626;7.516;2023-08-30T09:36:33;20.90;99.90
4530;DHT22;2277;51.626;7.516;2023-08-30T09:38:58;21.00;99.90
4530;DHT22;2277;51.626;7.516;2023-08-30T09:41:25;20.90;99.90
4530;DHT22;2277;51.626;7.516;2023-08-30T09:43:50;21.00;99.90
4530;DHT22;2277;51.626;7.516;2023-08-30T09:46:16;20.90;99.90
4530;DHT22;2277;51.626;7.516;2023-08-30T09:48:42;21.00;99.90
4530;DHT22;2277;51.626;7.516;2023-08-30T09:51:08;21.00;99.90
4530;DHT22;2277;51.626;7.516;2023-08-30T09:53:42;21.10;99.90
4530;DHT22;2277;51.626;7.516;2023-08-30T09:56:11;21.10;99.90
4530;DHT22;2277;51.626;7.516;2023-08-30T09:58:40;21.00;99.90
4530;DHT22;2277;51.626;7.516;2023-08-30T10:01:07;21.00;99.90
4530;DHT22;2277;51.626;7.516;2023-08-30T10:03:34;21.00;99.90
4530;DHT22;2277;51.626;7.516;2023-08-30T10:06:01;20.90;99.90
4530;DHT22;2277;51.626;7.516;2023-08-30T10:08:30;20.90;99.90
4530;DHT22;2277;51.626;7.516;2023-08-30T10:10:58;20.90;99.90
4530;DHT22;2277;51.626;7.516;2023-08-30T10:13:25;20.90;99.90
4530;DHT22;2277;51.626;7.516;2023-08-30T10:15:55;20.90;99.90
4530;DHT22;2277;51.626;7.516;2023-08-30T10:18:22;21.00;99.90
4530;DHT22;2277;51.626;7.516;2023-08-30T10:20:49;21.00;99.90
4530;DHT22;2277;51.626;7.516;2023-08-30T10:23:17;21.00;99.90
4530;DHT22;2277;51.626;7.516;2023-08-30T10:25:44;21.10;99.90
4530;DHT22;2277;51.626;7.516;2023-08-30T10:28:11;21.20;99.90
4530;DHT22;2277;51.626;7.516;2023-08-30T10:30:37;21.10;99.90
4530;DHT22;2277;51.626;7.516;2023-08-30T10:33:11;21.10;99.90
4530;DHT22;2277;51.626;7.516;2023-08-30T10:35:47;21.10;99.90
4530;DHT22;2277;51.626;7.516;2023-08-30T10:38:25;21.00;99.90
4530;DHT22;2277;51.626;7.516;2023-08-30T10:40:54;21.00;99.90
4530;DHT22;2277;51.626;7.516;2023-08-30T10:43:30;20.80;99.90
4530;DHT22;2277;51.626;7.516;2023-08-30T10:46:04;20.80;99.90
4530;DHT22;2277;51.626;7.516;2023-08-30T10:48:39;20.70;99.90
4530;DHT22;2277;51.626;7.516;2023-08-30T10:51:19;20.70;99.90
4530;DHT22;2277;51.626;7.516;2023-08-30T10:53:58;20.70;99.90
4530;DHT22;2277;51.626;7.516;2023-08-30T10:56:28;20.60;99.90
4530;DHT22;2277;51.626;7.516;2023-08-30T10:58:55;20.50;99.90
4530;DHT22;2277;51.626;7.516;2023-08-30T11:01:20;20.40;99.90
4530;DHT22;2277;51.626;7.516;2023-08-30T11:03:46;20.40;99.90
4530;DHT22;2277;51.626;7.516;2023-08-30T11:06:15;20.30;99.90
4530;DHT22;2277;51.626;7.516;2023-08-30T11:08:43;20.20;99.90
4530;DHT22;2277;51.626;7.516;2023-08-30T11:11:10;20.20;99.90
4530;DHT22;2277;51.626;7.516;2023-08-30T11:13:37;20.00;99.90
4530;DHT22;2277;51.626;7.516;2023-08-30T11:16:03;19.90;99.90
4530;DHT22;2277;51.626;7.516;2023-08-30T11:18:37;19.70;99.90
4530;DHT22;2277;51.626;7.516;2023-08-30T11:21:04;19.70;99.90
4530;DHT22;2277;51.626;7.516;2023-08-30T11:23:29;19.40;99.90
4530;DHT22;2277;51.626;7.516;2023-08-30T11:25:55;19.20;99.90
4530;DHT22;2277;51.626;7.516;2023-08-30T11:28:27;19.00;99.90
4530;DHT22;2277;51.626;7.516;2023-08-30T11:30:55;19.00;99.90
4530;DHT22;2277;51.626;7.516;2023-08-30T11:33:21;18.90;99.90
4530;DHT22;2277;51.626;7.516;2023-08-30T11:35:51;18.70;99.90
4530;DHT22;2277;51.626;7.516;2023-08-30T11:38:21;18.60;99.90
4530;DHT22;2277;51.626;7.516;2023-08-30T11:40:49;18.60;99.90
4530;DHT22;2277;51.626;7.516;2023-08-30T11:43:15;18.50;99.90
4530;DHT22;2277;51.626;7.516;2023-08-30T11:45:41;18.50;99.90
4530;DHT22;2277;51.626;7.516;2023-08-30T11:48:07;18.50;99.90
4530;DHT22;2277;51.626;7.516;2023-08-30T11:50:33;18.50;99.90
4530;DHT22;2277;51.626;7.516;2023-08-30T11:52:59;18.50;99.90
4530;DHT22;2277;51.626;7.516;2023-08-30T11:55:25;18.40;99.90
4530;DHT22;2277;51.626;7.516;2023-08-30T11:57:52;18.40;99.90
4530;DHT22;2277;51.626;7.516;2023-08-30T12:00:20;18.30;99.90
4530;DHT22;2277;51.626;7.516;2023-08-30T12:02:46;18.30;99.90
4530;DHT22;2277;51.626;7.516;2023-08-30T12:05:13;18.30;99.90
4530;DHT22;2277;51.626;7.516;2023-08-30T12:07:39;18.30;99.90
4530;DHT22;2277;51.626;7.516;2023-08-30T12:10:10;18.30;99.90
4530;DHT22;2277;51.626;7.516;2023-08-30T12:12:36;18.20;99.90
4530;DHT22;2277;51.626;7.516;2023-08-30T12:15:10;18.20;99.90
4530;DHT22;2277;51.626;7.516;2023-08-30T12:17:36;18.20;99.90
4530;DHT22;2277;51.626;7.516;2023-08-30T12:20:02;18.30;99.90
4530;DHT22;2277;51.626;7.516;2023-08-30T12:22:38;18.30;99.90
4530;DHT22;2277;51.626;7.516;2023-08-30T12:25:04;18.30;99.90
4530;DHT22;2277;51.626;7.516;2023-08-30T12:27:30;18.30;99.90
4530;DHT22;2277;51.626;7.516;2023-08-30T12:29:55;18.30;99.90
4530;DHT22;2277;51.626;7.516;2023-08-30T12:32:21;18.30;99.90
4530;DHT22;2277;51.626;7.516;2023-08-30T12:34:46;18.30;99.90
4530;DHT22;2277;51.626;7.516;2023-08-30T12:37:12;18.20;99.90
4530;DHT22;2277;51.626;7.516;2023-08-30T12:39:37;18.10;99.90
4530;DHT22;2277;51.626;7.516;2023-08-30T12:42:03;18.00;99.90
4530;DHT22;2277;51.626;7.516;2023-08-30T12:44:29;18.00;99.90
4530;DHT22;2277;51.626;7.516;2023-08-30T12:46:55;17.90;99.90
4530;DHT22;2277;51.626;7.516;2023-08-30T12:49:20;17.90;99.90
4530;DHT22;2277;51.626;7.516;2023-08-30T12:51:46;17.80;99.90
4530;DHT22;2277;51.626;7.516;2023-08-30T12:54:12;17.80;99.90
4530;DHT22;2277;51.626;7.516;2023-08-30T12:56:37;17.90;99.90
4530;DHT22;2277;51.626;7.516;2023-08-30T12:59:03;17.90;99.90
4530;DHT22;2277;51.626;7.516;2023-08-30T13:01:28;17.80;99.90
4530;DHT22;2277;51.626;7.516;2023-08-30T13:03:55;17.80;99.90
4530;DHT22;2277;51.626;7.516;2023-08-30T13:06:20;17.90;99.90
4530;DHT22;2277;51.626;7.516;2023-08-30T13:08:46;17.80;99.90
4530;DHT22;2277;51.626;7.516;2023-08-30T13:11:11;17.80;99.90
4530;DHT22;2277;51.626;7.516;2023-08-30T13:13:37;17.70;99.90
4530;DHT22;2277;51.626;7.516;2023-08-30T13:16:03;17.70;99.90
4530;DHT22;2277;51.626;7.516;2023-08-30T13:18:29;17.70;99.90
4530;DHT22;2277;51.626;7.516;2023-08-30T13:20:54;17.60;99.90
4530;DHT22;2277;51.626;7.516;2023-08-30T13:23:20;17.70;99.90
4530;DHT22;2277;51.626;7.516;2023-08-30T13:25:47;17.80;99.90
4530;DHT22;2277;51.626;7.516;2023-08-30T13:28:14;17.70;99.90
4530;DHT22;2277;51.626;7.516;2023-08-30T13:30:46;17.80;99.90
4530;DHT22;2277;51.626;7.516;2023-08-30T13:33:12;17.80;99.90
4530;DHT22;2277;51.626;7.516;2023-08-30T13:35:41;17.90;99.90
4530;DHT22;2277;51.626;7.516;2023-08-30T13:38:07;17.90;99.90
4530;DHT22;2277;51.626;7.516;2023-08-30T13:40:32;17.90;99.90
4530;DHT22;2277;51.626;7.516;2023-08-30T13:42:58;17.90;99.90
4530;DHT22;2277;51.626;7.516;2023-08-30T13:45:23;17.90;99.90
4530;DHT22;2277;51.626;7.516;2023-08-30T13:47:49;17.90;99.90
4530;DHT22;2277;51.626;7.516;2023-08-30T13:50:17;17.90;99.90
4530;DHT22;2277;51.626;7.516;2023-08-30T13:52:42;17.90;99.90
4530;DHT22;2277;51.626;7.516;2023-08-30T13:55:08;17.80;99.90
4530;DHT22;2277;51.626;7.516;2023-08-30T13:57:34;17.80;99.90
4530;DHT22;2277;51.626;7.516;2023-08-30T13:59:59;17.80;99.90
4530;DHT22;2277;51.626;7.516;2023-08-30T14:02:29;17.90;99.90
4530;DHT22;2277;51.626;7.516;2023-08-30T14:04:54;17.80;99.90
4530;DHT22;2277;51.626;7.516;2023-08-30T14:07:20;17.80;99.90
4530;DHT22;2277;51.626;7.516;2023-08-30T14:09:45;17.70;99.90
4530;DHT22;2277;51.626;7.516;2023-08-30T14:12:11;17.70;99.90
4530;DHT22;2277;51.626;7.516;2023-08-30T14:14:36;17.60;99.90
4530;DHT22;2277;51.626;7.516;2023-08-30T14:17:02;17.60;99.90
4530;DHT22;2277;51.626;7.516;2023-08-30T14:19:27;17.50;99.90
4530;DHT22;2277;51.626;7.516;2023-08-30T14:21:53;17.60;99.90
4530;DHT22;2277;51.626;7.516;2023-08-30T14:24:21;17.60;99.90
4530;DHT22;2277;51.626;7.516;2023-08-30T14:26:46;17.50;99.90
4530;DHT22;2277;51.626;7.516;2023-08-30T14:29:12;17.40;99.90
4530;DHT22;2277;51.626;7.516;2023-08-30T14:31:37;17.40;99.90
4530;DHT22;2277;51.626;7.516;2023-08-30T14:34:03;17.50;99.90
4530;DHT22;2277;51.626;7.516;2023-08-30T14:36:29;17.60;99.90
4530;DHT22;2277;51.626;7.516;2023-08-30T14:38:54;17.60;99.90
4530;DHT22;2277;51.626;7.516;2023-08-30T14:41:20;17.70;99.90
4530;DHT22;2277;51.626;7.516;2023-08-30T14:43:46;17.80;99.90
4530;DHT22;2277;51.626;7.516;2023-08-30T14:46:11;17.90;99.90
4530;DHT22;2277;51.626;7.516;2023-08-30T14:48:37;17.90;99.90
4530;DHT22;2277;51.626;7.516;2023-08-30T14:51:05;17.90;99.90
4530;DHT22;2277;51.626;7.516;2023-08-30T14:53:31;17.90;99.90
4530;DHT22;2277;51.626;7.516;2023-08-30T14:55:56;17.90;99.90
4530;DHT22;2277;51.626;7.516;2023-08-30T14:58:22;17.80;99.90
4530;DHT22;2277;51.626;7.516;2023-08-30T15:00:48;17.90;99.90
4530;DHT22;2277;51.626;7.516;2023-08-30T15:03:15;17.90;99.90
4530;DHT22;2277;51.626;7.516;2023-08-30T15:05:40;17.80;99.90
4530;DHT22;2277;51.626;7.516;2023-08-30T15:08:07;17.70;99.90
4530;DHT22;2277;51.626;7.516;2023-08-30T15:10:32;17.70;99.90
4530;DHT22;2277;51.626;7.516;2023-08-30T15:12:58;17.70;99.90
4530;DHT22;2277;51.626;7.516;2023-08-30T15:15:24;17.70;99.90
4530;DHT22;2277;51.626;7.516;2023-08-30T15:17:49;17.70;99.90
4530;DHT22;2277;51.626;7.516;2023-08-30T15:20:15;17.60;99.90
4530;DHT22;2277;51.626;7.516;2023-08-30T15:22:40;17.70;99.90
4530;DHT22;2277;51.626;7.516;2023-08-30T15:25:06;17.60;99.90
4530;DHT22;2277;51.626;7.516;2023-08-30T15:27:33;17.60;99.90
4530;DHT22;2277;51.626;7.516;2023-08-30T15:29:59;17.70;99.90
4530;DHT22;2277;51.626;7.516;2023-08-30T15:32:25;17.70;99.90
4530;DHT22;2277;51.626;7.516;2023-08-30T15:34:51;17.60;99.90
4530;DHT22;2277;51.626;7.516;2023-08-30T15:37:17;17.70;99.90
4530;DHT22;2277;51.626;7.516;2023-08-30T15:39:42;17.70;99.90
4530;DHT22;2277;51.626;7.516;2023-08-30T15:42:08;17.70;99.90
4530;DHT22;2277;51.626;7.516;2023-08-30T15:44:33;17.70;99.90
4530;DHT22;2277;51.626;7.516;2023-08-30T15:46:59;17.60;99.90
4530;DHT22;2277;51.626;7.516;2023-08-30T15:49:25;17.60;99.90
4530;DHT22;2277;51.626;7.516;2023-08-30T15:51:50;17.40;99.90
4530;DHT22;2277;51.626;7.516;2023-08-30T15:54:16;17.40;99.90
4530;DHT22;2277;51.626;7.516;2023-08-30T15:56:42;17.30;99.90
4530;DHT22;2277;51.626;7.516;2023-08-30T15:59:09;17.30;99.90